createdAt,value
2022-11-08T00:00:13.830Z,2.40
2022-11-08T00:02:40.755Z,2.65
2022-11-08T00:05:25.951Z,2.28
2022-11-08T00:08:11.867Z,2.42
2022-11-08T00:10:57.070Z,2.10
2022-11-08T00:13:42.177Z,2.45
2022-11-08T00:16:08.819Z,3.22
2022-11-08T00:18:35.545Z,2.47
2022-11-08T00:21:03.157Z,2.10
2022-11-08T00:23:29.962Z,2.50
2022-11-08T00:25:56.734Z,2.30
2022-11-08T00:28:23.384Z,2.50
2022-11-08T00:30:50.025Z,2.47
2022-11-08T00:33:18.681Z,2.70
2022-11-08T00:35:45.282Z,2.50
2022-11-08T00:38:11.906Z,2.80
2022-11-08T00:40:38.916Z,2.63
2022-11-08T00:43:05.557Z,2.30
2022-11-08T00:45:32.194Z,2.60
2022-11-08T00:47:58.838Z,2.40
2022-11-08T00:50:25.425Z,2.65
2022-11-08T00:52:52.076Z,2.30
2022-11-08T00:55:18.691Z,2.30
2022-11-08T00:58:00.838Z,2.20
2022-11-08T01:00:27.898Z,2.60
2022-11-08T01:03:14.546Z,3.40
2022-11-08T01:05:41.344Z,2.42
2022-11-08T01:08:08.058Z,2.67
2022-11-08T01:10:35.285Z,2.83
2022-11-08T01:13:01.996Z,2.30
2022-11-08T01:15:28.982Z,2.60
2022-11-08T01:17:55.602Z,2.47
2022-11-08T01:20:22.320Z,2.15
2022-11-08T01:22:48.956Z,2.03
2022-11-08T01:25:15.618Z,3.20
2022-11-08T01:27:43.507Z,2.58
2022-11-08T01:30:10.565Z,2.35
2022-11-08T01:32:37.185Z,2.78
2022-11-08T01:35:04.163Z,2.40
2022-11-08T01:37:30.872Z,2.45
2022-11-08T01:39:57.474Z,2.38
2022-11-08T01:42:31.824Z,2.17
2022-11-08T01:45:10.372Z,1.92
2022-11-08T01:47:36.958Z,2.40
2022-11-08T01:50:09.526Z,2.00
2022-11-08T01:52:43.525Z,2.00
2022-11-08T01:55:15.795Z,2.05
2022-11-08T01:58:00.645Z,2.22
2022-11-08T02:00:27.625Z,2.05
2022-11-08T02:02:58.483Z,1.90
2022-11-08T02:05:25.991Z,2.78
2022-11-08T02:08:04.698Z,1.88
2022-11-08T02:10:51.780Z,2.15
2022-11-08T02:13:24.538Z,2.25
2022-11-08T02:15:51.715Z,1.75
2022-11-08T02:18:19.982Z,2.03
2022-11-08T02:21:01.213Z,1.95
2022-11-08T02:23:35.137Z,2.17
2022-11-08T02:26:02.089Z,2.08
2022-11-08T02:28:28.717Z,2.20
2022-11-08T02:30:55.423Z,1.92
2022-11-08T02:33:23.352Z,2.08
2022-11-08T02:35:52.886Z,2.05
2022-11-08T02:38:20.099Z,1.85
2022-11-08T02:40:52.205Z,1.58
2022-11-08T02:43:19.181Z,1.90
2022-11-08T02:45:45.987Z,2.00
2022-11-08T02:48:13.104Z,1.98
2022-11-08T02:50:40.350Z,1.88
2022-11-08T02:53:07.593Z,1.88
2022-11-08T02:55:34.689Z,2.20
2022-11-08T02:58:01.994Z,1.70
2022-11-08T03:00:28.949Z,2.20
2022-11-08T03:02:57.502Z,1.70
2022-11-08T03:05:24.871Z,1.95
2022-11-08T03:07:51.510Z,1.98
2022-11-08T03:10:18.543Z,2.20
2022-11-08T03:12:45.200Z,2.00
2022-11-08T03:15:13.139Z,1.70
2022-11-08T03:17:40.168Z,2.25
2022-11-08T03:20:08.140Z,1.73
2022-11-08T03:22:34.792Z,1.77
2022-11-08T03:25:01.483Z,2.22
2022-11-08T03:27:28.139Z,2.20
2022-11-08T03:29:54.749Z,1.88
2022-11-08T03:32:21.380Z,2.05
2022-11-08T03:34:48.088Z,2.00
2022-11-08T03:37:14.722Z,2.20
2022-11-08T03:39:41.346Z,2.42
2022-11-08T03:42:08.133Z,2.35
2022-11-08T03:44:34.833Z,2.03
2022-11-08T03:47:01.585Z,1.98
2022-11-08T03:49:28.262Z,2.38
2022-11-08T03:51:54.934Z,1.90
2022-11-08T03:54:21.590Z,1.80
2022-11-08T03:56:48.245Z,1.98
2022-11-08T03:59:15.045Z,1.63
2022-11-08T04:01:41.869Z,1.80
2022-11-08T04:04:08.718Z,2.22
2022-11-08T04:06:35.378Z,1.98
2022-11-08T04:09:02.090Z,2.15
2022-11-08T04:11:47.252Z,2.33
2022-11-08T04:14:32.491Z,1.90
2022-11-08T04:16:59.100Z,2.03
2022-11-08T04:19:55.009Z,1.70
2022-11-08T04:22:21.638Z,1.60
2022-11-08T04:24:48.268Z,2.00
2022-11-08T04:27:14.895Z,1.95
2022-11-08T04:29:41.522Z,2.38
2022-11-08T04:32:08.224Z,2.13
2022-11-08T04:34:34.912Z,2.10
2022-11-08T04:37:01.548Z,1.85
2022-11-08T04:39:28.223Z,2.55
2022-11-08T04:42:00.783Z,1.92
2022-11-08T04:44:28.705Z,2.17
2022-11-08T04:46:55.309Z,2.00
2022-11-08T04:49:21.968Z,2.10
2022-11-08T04:51:48.553Z,1.90
2022-11-08T04:54:15.170Z,2.08
2022-11-08T04:56:41.976Z,2.10
2022-11-08T04:59:12.112Z,2.15
2022-11-08T05:01:39.310Z,1.85
2022-11-08T05:04:06.160Z,2.38
2022-11-08T05:06:33.005Z,2.30
2022-11-08T05:09:00.385Z,1.80
2022-11-08T05:11:29.018Z,2.35
2022-11-08T05:13:56.311Z,2.13
2022-11-08T05:16:25.836Z,1.70
2022-11-08T05:18:53.185Z,2.22
2022-11-08T05:21:39.454Z,2.35
2022-11-08T05:24:07.713Z,1.98
2022-11-08T05:26:36.252Z,2.45
2022-11-08T05:29:03.615Z,1.55
2022-11-08T05:31:30.323Z,2.00
2022-11-08T05:33:56.941Z,2.40
2022-11-08T05:36:23.615Z,2.40
2022-11-08T05:38:50.255Z,2.28
2022-11-08T05:41:19.169Z,2.00
2022-11-08T05:43:48.051Z,2.67
2022-11-08T05:46:15.232Z,2.38
2022-11-08T05:48:43.069Z,2.33
2022-11-08T05:51:12.057Z,2.65
2022-11-08T05:53:39.477Z,2.30
2022-11-08T05:56:06.387Z,1.90
2022-11-08T05:58:34.635Z,2.33
2022-11-08T06:01:02.744Z,2.60
2022-11-08T06:03:29.983Z,2.45
2022-11-08T06:06:02.040Z,2.40
2022-11-08T06:08:28.788Z,2.65
2022-11-08T06:10:55.398Z,2.35
2022-11-08T06:13:22.032Z,2.72
2022-11-08T06:15:48.764Z,2.47
2022-11-08T06:18:15.428Z,2.67
2022-11-08T06:20:42.070Z,2.80
2022-11-08T06:23:08.717Z,2.80
2022-11-08T06:25:35.405Z,2.70
2022-11-08T06:28:02.112Z,2.40
2022-11-08T06:30:29.434Z,2.92
2022-11-08T06:32:59.744Z,3.83
2022-11-08T06:35:26.397Z,2.65
2022-11-08T06:37:57.738Z,3.03
2022-11-08T06:40:26.665Z,3.08
2022-11-08T06:42:53.456Z,2.88
2022-11-08T06:45:20.689Z,3.30
2022-11-08T06:47:47.309Z,2.88
2022-11-08T06:50:14.001Z,3.17
2022-11-08T06:52:40.932Z,2.65
2022-11-08T06:55:07.809Z,2.75
2022-11-08T06:57:34.517Z,2.90
2022-11-08T07:00:01.157Z,2.92
2022-11-08T07:02:27.893Z,2.95
2022-11-08T07:04:54.720Z,3.00
2022-11-08T07:07:21.671Z,2.90
2022-11-08T07:09:48.311Z,3.10
2022-11-08T07:12:14.959Z,2.80
2022-11-08T07:14:41.578Z,2.80
2022-11-08T07:17:08.188Z,2.95
2022-11-08T07:19:35.133Z,3.10
2022-11-08T07:22:01.808Z,2.92
2022-11-08T07:24:28.526Z,2.72
2022-11-08T07:26:57.903Z,2.72
2022-11-08T07:29:24.582Z,3.25
2022-11-08T07:31:51.239Z,3.20
2022-11-08T07:34:17.878Z,2.90
2022-11-08T07:36:44.555Z,2.97
2022-11-08T07:39:11.352Z,2.30
2022-11-08T07:41:38.023Z,2.60
2022-11-08T07:44:04.691Z,1.73
2022-11-08T07:46:31.379Z,2.13
2022-11-08T07:48:57.985Z,1.60
2022-11-08T07:51:24.725Z,1.80
2022-11-08T07:53:51.694Z,1.58
2022-11-08T07:56:18.434Z,1.40
2022-11-08T07:58:45.199Z,1.65
2022-11-08T08:01:11.942Z,1.80
2022-11-08T08:03:38.590Z,1.20
2022-11-08T08:06:05.283Z,1.55
2022-11-08T08:08:32.325Z,1.40
2022-11-08T08:11:02.520Z,1.60
2022-11-08T08:13:32.594Z,1.42
2022-11-08T08:16:00.824Z,1.13
2022-11-08T08:18:28.993Z,1.17
2022-11-08T08:20:55.667Z,1.48
2022-11-08T08:23:22.399Z,1.40
2022-11-08T08:25:49.154Z,1.27
2022-11-08T08:28:15.761Z,1.20
2022-11-08T08:30:42.393Z,1.30
2022-11-08T08:33:27.967Z,1.13
2022-11-08T08:35:56.324Z,1.00
2022-11-08T08:38:23.035Z,1.30
2022-11-08T08:40:50.480Z,1.30
2022-11-08T08:43:17.700Z,1.33
2022-11-08T08:45:44.699Z,1.30
2022-11-08T08:48:11.399Z,1.10
2022-11-08T08:50:38.031Z,1.25
2022-11-08T08:53:05.737Z,1.35
2022-11-08T08:55:35.380Z,1.10
2022-11-08T08:58:02.089Z,1.10
2022-11-08T09:03:15.877Z,1.02
2022-11-08T09:05:44.290Z,1.20
2022-11-08T09:08:11.429Z,1.45
2022-11-08T09:10:38.209Z,1.35
2022-11-08T09:13:04.946Z,1.30
2022-11-08T09:15:32.884Z,1.05
2022-11-08T09:17:59.717Z,1.02
2022-11-08T09:20:26.727Z,1.45
2022-11-08T09:22:53.375Z,1.10
2022-11-08T09:25:20.042Z,1.00
2022-11-08T09:27:46.697Z,1.38
2022-11-08T09:30:13.498Z,0.80
2022-11-08T09:32:59.597Z,1.08
2022-11-08T09:35:26.894Z,1.00
2022-11-08T09:37:54.014Z,1.10
2022-11-08T09:40:23.890Z,1.00
2022-11-08T09:43:21.426Z,1.30
2022-11-08T09:45:49.318Z,1.42
2022-11-08T09:48:40.487Z,1.20
2022-11-08T09:51:13.963Z,1.33
2022-11-08T09:53:54.285Z,0.90
2022-11-08T09:56:36.494Z,1.20
2022-11-08T09:59:40.285Z,1.67
2022-11-08T10:02:17.661Z,1.17
2022-11-08T10:04:46.910Z,1.08
2022-11-08T10:07:16.894Z,1.05
2022-11-08T10:09:49.057Z,1.30
2022-11-08T10:12:46.864Z,1.25
2022-11-08T10:15:25.572Z,0.98
2022-11-08T10:18:01.274Z,1.27
2022-11-08T10:20:36.366Z,1.00
2022-11-08T10:23:23.917Z,1.30
2022-11-08T10:25:55.294Z,1.20
2022-11-08T10:28:26.436Z,2.03
2022-11-08T10:30:54.860Z,1.40
2022-11-08T10:33:33.380Z,1.67
2022-11-08T10:36:27.232Z,1.08
2022-11-08T10:39:09.193Z,1.00
2022-11-08T10:41:38.765Z,1.20
2022-11-08T10:44:12.990Z,1.10
2022-11-08T10:46:45.271Z,1.33
2022-11-08T10:49:16.341Z,1.30
2022-11-08T10:51:47.701Z,1.20
2022-11-08T10:54:47.522Z,1.20
2022-11-08T10:57:25.287Z,1.20
2022-11-08T10:59:52.632Z,1.50
2022-11-08T11:02:23.018Z,1.35
2022-11-08T11:04:50.735Z,1.30
2022-11-08T11:07:35.382Z,1.33
2022-11-08T11:10:44.382Z,1.55
2022-11-08T11:13:24.422Z,1.58
2022-11-08T11:15:52.385Z,1.50
2022-11-08T11:18:27.632Z,1.20
2022-11-08T11:20:59.510Z,1.27
2022-11-08T11:23:45.546Z,1.30
2022-11-08T11:26:35.778Z,1.20
2022-11-08T11:29:05.564Z,1.05
2022-11-08T11:31:36.054Z,1.60
2022-11-08T11:34:17.952Z,1.17
2022-11-08T11:37:06.379Z,1.48
2022-11-08T11:39:39.829Z,1.48
2022-11-08T11:42:47.168Z,1.45
2022-11-08T11:45:19.712Z,1.50
2022-11-08T11:47:55.305Z,1.63
2022-11-08T11:50:33.806Z,1.20
2022-11-08T11:53:04.931Z,1.80
2022-11-08T11:55:37.459Z,1.60
2022-11-08T11:58:16.461Z,1.60
2022-11-08T12:00:49.339Z,1.40
2022-11-08T12:03:34.433Z,1.90
2022-11-08T12:06:30.478Z,1.60
2022-11-08T12:09:32.488Z,1.50
2022-11-08T12:12:20.830Z,1.80
2022-11-08T12:14:56.417Z,1.40
2022-11-08T12:17:52.022Z,1.67
2022-11-08T12:20:52.663Z,1.30
2022-11-08T12:23:41.200Z,1.40
2022-11-08T12:26:14.819Z,1.20
2022-11-08T12:29:08.181Z,1.30
2022-11-08T12:31:47.052Z,1.40
2022-11-08T12:34:19.854Z,1.65
2022-11-08T12:36:54.956Z,1.67
2022-11-08T12:39:38.680Z,1.48
2022-11-08T12:42:30.793Z,1.40
2022-11-08T12:45:27.911Z,1.35
2022-11-08T12:48:15.444Z,1.70
2022-11-08T12:51:06.348Z,1.55
2022-11-08T12:53:38.362Z,1.83
2022-11-08T12:56:06.035Z,1.60
2022-11-08T12:58:35.853Z,1.40
2022-11-08T13:01:07.087Z,1.58
2022-11-08T13:03:42.981Z,1.45
2022-11-08T13:06:27.027Z,1.42
2022-11-08T13:09:02.724Z,1.20
2022-11-08T13:11:59.524Z,1.30
2022-11-08T13:14:26.304Z,1.40
2022-11-08T13:17:16.402Z,1.65
2022-11-08T13:19:49.491Z,1.60
2022-11-08T13:22:31.415Z,1.58
2022-11-08T13:25:11.492Z,1.25
2022-11-08T13:27:39.970Z,1.50
2022-11-08T13:30:15.453Z,1.52
2022-11-08T13:33:12.648Z,1.25
2022-11-08T13:35:54.524Z,1.40
2022-11-08T13:38:45.961Z,1.30
2022-11-08T13:41:24.560Z,1.58
2022-11-08T13:43:53.965Z,1.65
2022-11-08T13:46:20.956Z,1.70
2022-11-08T13:49:05.126Z,1.70
2022-11-08T13:51:36.215Z,1.70
2022-11-08T13:54:22.969Z,1.70
2022-11-08T13:56:57.055Z,1.80
2022-11-08T13:59:33.024Z,1.77
2022-11-08T14:02:05.647Z,1.50
2022-11-08T14:04:40.709Z,1.48
2022-11-08T14:07:33.717Z,1.52
2022-11-08T14:10:15.553Z,1.33
2022-11-08T14:12:45.771Z,1.65
2022-11-08T14:15:22.062Z,1.90
2022-11-08T14:17:58.167Z,1.50
2022-11-08T14:20:28.974Z,2.40
2022-11-08T14:22:57.154Z,1.50
2022-11-08T14:25:34.483Z,1.58
2022-11-08T14:28:01.465Z,1.73
2022-11-08T14:30:28.236Z,1.50
2022-11-08T14:33:11.292Z,1.30
2022-11-08T14:35:37.926Z,1.80
2022-11-08T14:38:13.838Z,1.73
2022-11-08T14:40:51.278Z,2.15
2022-11-08T14:43:19.155Z,1.92
2022-11-08T14:45:46.186Z,1.65
2022-11-08T14:48:19.961Z,1.70
2022-11-08T14:50:46.907Z,1.60
2022-11-08T14:53:28.416Z,1.65
2022-11-08T14:56:20.832Z,1.98
2022-11-08T14:58:48.820Z,1.90
2022-11-08T15:01:17.508Z,2.03
2022-11-08T15:03:46.684Z,2.10
2022-11-08T15:06:14.447Z,1.85
2022-11-08T15:08:47.356Z,1.98
2022-11-08T15:11:30.751Z,1.85
2022-11-08T15:14:05.870Z,2.03
2022-11-08T15:16:44.084Z,2.10
2022-11-08T15:19:26.764Z,1.98
2022-11-08T15:21:53.449Z,1.80
2022-11-08T15:24:37.161Z,1.70
2022-11-08T15:27:15.563Z,1.75
2022-11-08T15:29:53.440Z,1.42
2022-11-08T15:32:22.079Z,1.85
2022-11-08T15:34:49.225Z,1.75
2022-11-08T15:37:36.127Z,1.55
2022-11-08T15:40:23.658Z,1.90
2022-11-08T15:42:52.007Z,2.05
2022-11-08T15:45:20.557Z,2.20
2022-11-08T15:47:48.077Z,1.90
2022-11-08T15:50:17.566Z,1.77
2022-11-08T15:52:45.147Z,1.90
2022-11-08T15:55:21.289Z,2.17
2022-11-08T15:57:49.122Z,1.95
2022-11-08T16:00:16.395Z,2.58
2022-11-08T16:02:44.027Z,2.00
2022-11-08T16:05:16.067Z,1.95
2022-11-08T16:07:44.240Z,2.17
2022-11-08T16:10:11.942Z,1.60
2022-11-08T16:12:44.403Z,1.98
2022-11-08T16:15:20.230Z,2.08
2022-11-08T16:17:46.948Z,2.60
2022-11-08T16:20:27.605Z,10.98
2022-11-08T16:22:58.132Z,10.45
2022-11-08T16:25:26.323Z,5.40
2022-11-08T16:27:58.237Z,2.88
2022-11-08T16:30:25.545Z,3.53
2022-11-08T16:32:52.617Z,4.78
2022-11-08T16:35:19.552Z,4.22
2022-11-08T16:37:46.776Z,4.50
2022-11-08T16:40:20.721Z,3.28
2022-11-08T16:42:49.323Z,2.10
2022-11-08T16:45:19.604Z,2.40
2022-11-08T16:47:52.634Z,2.38
2022-11-08T16:50:28.961Z,2.40
2022-11-08T16:52:55.542Z,3.08
2022-11-08T16:55:22.644Z,3.00
2022-11-08T16:57:49.367Z,3.20
2022-11-08T17:00:18.333Z,2.50
2022-11-08T17:02:50.444Z,2.20
2022-11-08T17:05:22.830Z,2.55
2022-11-08T17:07:53.336Z,1.75
2022-11-08T17:10:23.416Z,2.28
2022-11-08T17:12:50.626Z,2.25
2022-11-08T17:15:20.343Z,2.75
2022-11-08T17:17:47.462Z,2.78
2022-11-08T17:20:15.858Z,3.28
2022-11-08T17:22:43.685Z,2.78
2022-11-08T17:25:11.783Z,2.47
2022-11-08T17:27:38.938Z,2.70
2022-11-08T17:30:06.707Z,2.53
2022-11-08T17:32:34.961Z,1.90
2022-11-08T17:35:05.570Z,2.20
2022-11-08T17:37:32.620Z,2.15
2022-11-08T17:39:59.246Z,2.50
2022-11-08T17:42:25.958Z,2.35
2022-11-08T17:44:54.456Z,1.95
2022-11-08T17:47:21.077Z,2.22
2022-11-08T17:49:47.739Z,2.47
2022-11-08T17:52:14.520Z,2.00
2022-11-08T17:54:41.254Z,1.65
2022-11-08T17:57:08.480Z,1.90
2022-11-08T17:59:35.071Z,1.50
2022-11-08T18:02:01.792Z,1.77
2022-11-08T18:04:29.345Z,2.20
2022-11-08T18:06:56.302Z,2.10
2022-11-08T18:09:23.407Z,1.83
2022-11-08T18:11:50.251Z,1.75
2022-11-08T18:14:18.571Z,2.00
2022-11-08T18:16:45.591Z,1.75
2022-11-08T18:19:12.202Z,1.95
2022-11-08T18:21:38.849Z,1.98
2022-11-08T18:24:05.623Z,2.22
2022-11-08T18:26:32.395Z,1.70
2022-11-08T18:28:59.103Z,1.60
2022-11-08T18:31:26.210Z,1.77
2022-11-08T18:33:52.846Z,1.73
2022-11-08T18:36:21.688Z,1.63
2022-11-08T18:38:49.252Z,1.95
2022-11-08T18:41:22.068Z,1.70
2022-11-08T18:43:48.939Z,2.05
2022-11-08T18:46:18.983Z,2.33
2022-11-08T18:48:45.890Z,1.35
2022-11-08T18:51:14.432Z,1.60
2022-11-08T18:53:41.177Z,1.92
2022-11-08T18:56:08.947Z,2.22
2022-11-08T18:58:35.667Z,2.97
2022-11-08T19:01:02.302Z,2.70
2022-11-08T19:03:29.184Z,2.00
2022-11-08T19:05:55.846Z,1.80
2022-11-08T19:08:26.734Z,2.00
2022-11-08T19:11:01.288Z,1.60
2022-11-08T19:13:29.886Z,1.70
2022-11-08T19:16:05.603Z,1.80
2022-11-08T19:18:33.269Z,1.88
2022-11-08T19:21:02.623Z,2.20
2022-11-08T19:23:30.490Z,1.65
2022-11-08T19:26:03.367Z,1.88
2022-11-08T19:28:35.357Z,2.15
2022-11-08T19:31:02.156Z,1.63
2022-11-08T19:33:30.754Z,1.65
2022-11-08T19:36:08.990Z,1.52
2022-11-08T19:38:37.318Z,1.90
2022-11-08T19:41:18.499Z,2.28
2022-11-08T19:43:45.887Z,1.95
2022-11-08T19:46:14.532Z,1.83
2022-11-08T19:48:42.951Z,2.38
2022-11-08T19:51:24.478Z,1.63
2022-11-08T19:53:55.648Z,1.70
2022-11-08T19:56:32.886Z,1.90
2022-11-08T19:59:08.927Z,1.52
2022-11-08T20:01:40.193Z,1.90
2022-11-08T20:04:08.656Z,1.70
2022-11-08T20:06:36.108Z,1.77
2022-11-08T20:09:04.597Z,1.95
2022-11-08T20:11:33.916Z,1.67
2022-11-08T20:14:01.079Z,1.80
2022-11-08T20:16:29.988Z,1.70
2022-11-08T20:19:02.011Z,1.85
2022-11-08T20:21:28.696Z,1.77
2022-11-08T20:23:55.340Z,1.90
2022-11-08T20:26:23.816Z,1.80
2022-11-08T20:28:56.473Z,1.70
2022-11-08T20:31:24.647Z,2.10
2022-11-08T20:33:53.067Z,1.77
2022-11-08T20:36:21.655Z,1.80
2022-11-08T20:38:48.442Z,1.70
2022-11-08T20:41:16.721Z,1.80
2022-11-08T20:43:45.081Z,2.10
2022-11-08T20:46:16.779Z,2.10
2022-11-08T20:48:44.395Z,2.08
2022-11-08T20:51:13.571Z,1.98
2022-11-08T20:53:40.804Z,1.90
2022-11-08T20:56:10.295Z,1.67
2022-11-08T20:58:37.298Z,1.90
2022-11-08T21:01:06.510Z,1.98
2022-11-08T21:03:33.416Z,2.10
2022-11-08T21:06:04.819Z,1.95
2022-11-08T21:11:19.339Z,2.00
2022-11-08T21:13:46.597Z,1.95
2022-11-08T21:16:29.322Z,1.98
2022-11-08T21:18:57.560Z,2.13
2022-11-08T21:21:24.598Z,1.58
2022-11-08T21:23:51.624Z,1.60
2022-11-08T21:26:21.950Z,2.13
2022-11-08T21:28:48.678Z,1.90
2022-11-08T21:31:15.718Z,1.70
2022-11-08T21:33:42.567Z,1.73
2022-11-08T21:36:09.584Z,1.67
2022-11-08T21:38:37.722Z,1.67
2022-11-08T21:41:05.876Z,1.70
2022-11-08T21:43:41.343Z,1.60
2022-11-08T21:46:23.246Z,2.15
2022-11-08T21:48:54.979Z,1.95
2022-11-08T21:51:21.574Z,1.60
2022-11-08T21:53:55.312Z,1.60
2022-11-08T21:56:28.497Z,1.90
2022-11-08T21:58:55.230Z,2.28
2022-11-08T22:01:26.959Z,1.83
2022-11-08T22:03:55.448Z,2.42
2022-11-08T22:06:22.620Z,2.00
2022-11-08T22:08:49.359Z,1.70
2022-11-08T22:11:15.953Z,1.83
2022-11-08T22:13:42.572Z,1.63
2022-11-08T22:16:09.224Z,1.70
2022-11-08T22:18:58.868Z,1.60
2022-11-08T22:21:38.663Z,1.55
2022-11-08T22:24:14.028Z,1.85
2022-11-08T22:26:41.363Z,2.13
2022-11-08T22:29:08.098Z,1.75
2022-11-08T22:31:35.064Z,1.83
2022-11-08T22:34:01.938Z,1.48
2022-11-08T22:36:28.890Z,1.83
2022-11-08T22:38:56.879Z,2.03
2022-11-08T22:41:23.655Z,1.60
2022-11-08T22:43:50.583Z,1.65
2022-11-08T22:46:17.492Z,1.42
2022-11-08T22:48:44.642Z,1.70
2022-11-08T22:51:11.681Z,1.65
2022-11-08T22:53:38.563Z,1.92
2022-11-08T22:56:10.812Z,1.58
2022-11-08T22:58:38.011Z,1.48
2022-11-08T23:01:04.858Z,1.75
2022-11-08T23:03:31.508Z,1.45
2022-11-08T23:05:58.309Z,1.60
2022-11-08T23:08:26.212Z,1.60
2022-11-08T23:11:11.938Z,1.42
2022-11-08T23:13:57.549Z,1.42
2022-11-08T23:16:37.467Z,1.42
2022-11-08T23:19:28.797Z,1.42
2022-11-08T23:22:14.449Z,1.55
2022-11-08T23:24:42.848Z,1.70
2022-11-08T23:27:29.031Z,1.42
2022-11-08T23:30:14.295Z,1.40
2022-11-08T23:32:48.350Z,1.40
2022-11-08T23:35:18.748Z,1.50
2022-11-08T23:37:45.396Z,1.40
2022-11-08T23:40:31.995Z,1.50
2022-11-08T23:43:25.241Z,1.55
2022-11-08T23:45:51.990Z,1.30
2022-11-08T23:48:18.725Z,1.42
2022-11-08T23:50:54.633Z,1.40
2022-11-08T23:53:24.959Z,1.60
2022-11-08T23:55:52.556Z,1.20
2022-11-08T23:58:19.916Z,1.48
